Aviation Digital Data Service (ADDS)

Output produced by METARs form (2206 UTC 23 April 2014)
found at http://aviationweather.gov/adds/metars/
 
KILM 231720Z 2318/2418 31014G20KT P6SM SKC 
     FM240000 36005KT P6SM SKC